Time;durP1;ratioP1;P1;durP2;ratioP2;P2;SDS_P1;SDS_P2;PMS_P1;PMS_P2;Temp;Humidity;BMP_temperature;BMP_pressure;BME280_temperature;BME280_humidity;BME280_pressure;Samples;Min_cycle;Max_cycle;Signal;HPM_P1;HPM_P2
2021/11/27 00:01:05;;;;;;;13.13;7.70;;;;;;;;;;5031915;28;20598;-86
2021/11/27 00:04:10;;;;;;;12.83;8.67;;;;;;;;;;5021362;28;20901;-87
2021/11/27 00:07:14;;;;;;;12.93;8.67;;;;;;;;;;5031795;28;20626;-87
2021/11/27 00:10:24;;;;;;;12.70;7.87;;;;;;;;;;5022607;28;20539;-87
2021/11/27 00:13:28;;;;;;;14.73;8.23;;;;;;;;;;5021424;28;20674;-87
2021/11/27 00:16:33;;;;;;;13.70;8.60;;;;;;;;;;5033456;28;21075;-86
2021/11/27 00:19:39;;;;;;;13.17;8.97;;;;;;;;;;5033274;28;20547;-86
2021/11/27 00:22:43;;;;;;;12.23;7.90;;;;;;;;;;5021484;28;20542;-87
2021/11/27 00:25:47;;;;;;;11.93;7.87;;;;;;;;;;5044187;28;20547;-87
2021/11/27 00:28:51;;;;;;;13.00;8.03;;;;;;;;;;5021250;28;20611;-86
2021/11/27 00:31:55;;;;;;;13.00;8.30;;;;;;;;;;5021730;28;20536;-86
2021/11/27 00:34:59;;;;;;;13.40;8.20;;;;;;;;;;5021367;28;20543;-86
2021/11/27 00:38:06;;;;;;;10.80;7.37;;;;;;;;;;5055453;28;20614;-86
2021/11/27 00:41:13;;;;;;;14.90;7.90;;;;;;;;;;5025244;28;20646;-86
2021/11/27 00:44:22;;;;;;;10.80;7.80;;;;;;;;;;5025049;28;20543;-86
2021/11/27 00:47:26;;;;;;;10.37;7.40;;;;;;;;;;5036108;28;20610;-86
2021/11/27 00:50:43;;;;;;;12.70;7.97;;;;;;;;;;5037120;28;20539;-87
2021/11/27 00:53:48;;;;;;;10.70;7.37;;;;;;;;;;5023428;28;21059;-87
2021/11/27 00:56:52;;;;;;;9.50;6.97;;;;;;;;;;5023199;28;20897;-87
2021/11/27 00:59:56;;;;;;;11.93;7.83;;;;;;;;;;5023196;28;20896;-87
2021/11/27 01:03:04;;;;;;;10.20;7.00;;;;;;;;;;5023609;28;20555;-87
2021/11/27 01:06:10;;;;;;;11.17;7.63;;;;;;;;;;5034617;28;20602;-87
2021/11/27 01:09:16;;;;;;;10.87;7.07;;;;;;;;;;5035078;28;20542;-87
2021/11/27 01:12:20;;;;;;;15.13;7.77;;;;;;;;;;5044865;28;20554;-86
2021/11/27 01:15:28;;;;;;;10.53;7.00;;;;;;;;;;5023411;28;20539;-86
2021/11/27 01:18:32;;;;;;;10.97;7.20;;;;;;;;;;5034897;28;20621;-87
2021/11/27 01:21:38;;;;;;;11.73;7.40;;;;;;;;;;5023976;28;20645;-86
2021/11/27 01:24:46;;;;;;;11.70;7.47;;;;;;;;;;5024514;28;20543;-86
2021/11/27 01:27:50;;;;;;;10.17;6.40;;;;;;;;;;5034971;28;20613;-87
2021/11/27 01:30:58;;;;;;;8.93;6.27;;;;;;;;;;5036087;28;20586;-86
2021/11/27 01:34:04;;;;;;;9.50;6.73;;;;;;;;;;5024060;28;20994;-86
2021/11/27 01:37:09;;;;;;;9.73;6.13;;;;;;;;;;5035400;28;20621;-86
2021/11/27 01:40:20;;;;;;;9.57;5.87;;;;;;;;;;5024145;28;20862;-86
2021/11/27 01:43:24;;;;;;;8.10;5.50;;;;;;;;;;5035214;28;20551;-87
2021/11/27 01:46:29;;;;;;;8.57;5.53;;;;;;;;;;5041576;28;20543;-87
2021/11/27 01:49:33;;;;;;;8.03;5.57;;;;;;;;;;5025613;28;20555;-86
2021/11/27 01:52:38;;;;;;;8.20;5.30;;;;;;;;;;5025627;28;20535;-87
2021/11/27 01:55:42;;;;;;;7.87;5.60;;;;;;;;;;5036371;28;20535;-86
2021/11/27 01:58:46;;;;;;;9.40;5.77;;;;;;;;;;5035473;28;20641;-86
2021/11/27 02:01:52;;;;;;;9.10;5.10;;;;;;;;;;5035695;28;20586;-86
2021/11/27 02:04:59;;;;;;;8.63;5.40;;;;;;;;;;5035593;28;20555;-87
2021/11/27 02:08:04;;;;;;;8.03;5.40;;;;;;;;;;5023282;28;20630;-87
2021/11/27 02:11:10;;;;;;;10.50;5.50;;;;;;;;;;5034509;28;20535;-88
2021/11/27 02:14:17;;;;;;;7.47;4.90;;;;;;;;;;5035587;28;20885;-86
2021/11/27 02:17:34;;;;;;;7.70;5.53;;;;;;;;;;5035237;28;20627;-86
2021/11/27 02:20:41;;;;;;;8.37;5.20;;;;;;;;;;5034679;28;20586;-86
2021/11/27 02:23:46;;;;;;;8.93;5.33;;;;;;;;;;5035325;28;20551;-88
2021/11/27 02:26:51;;;;;;;9.27;5.40;;;;;;;;;;5023587;28;20552;-86
2021/11/27 02:29:56;;;;;;;6.90;4.80;;;;;;;;;;5033864;28;20547;-86
2021/11/27 02:33:00;;;;;;;7.50;5.20;;;;;;;;;;5023173;28;21083;-86
2021/11/27 02:36:05;;;;;;;9.33;5.23;;;;;;;;;;5022400;28;20598;-86
2021/11/27 02:39:11;;;;;;;7.47;4.77;;;;;;;;;;5033415;28;21075;-86
2021/11/27 02:42:15;;;;;;;9.33;5.70;;;;;;;;;;5022455;28;20591;-86
2021/11/27 02:45:19;;;;;;;7.70;5.10;;;;;;;;;;5034597;28;20535;-86
2021/11/27 02:48:23;;;;;;;8.37;4.80;;;;;;;;;;5022373;28;20963;-87
2021/11/27 02:51:28;;;;;;;6.70;4.60;;;;;;;;;;5055988;28;20539;-86
2021/11/27 02:54:33;;;;;;;7.80;4.70;;;;;;;;;;5033772;28;20535;-86
2021/11/27 02:57:38;;;;;;;6.03;4.20;;;;;;;;;;5044165;28;21002;-86
2021/11/27 03:00:44;;;;;;;6.50;4.13;;;;;;;;;;5021445;28;20606;-86
2021/11/27 03:03:48;;;;;;;5.77;4.13;;;;;;;;;;5021751;28;20559;-86
2021/11/27 03:06:54;;;;;;;5.43;4.10;;;;;;;;;;5033568;28;20540;-86
2021/11/27 03:09:59;;;;;;;6.30;3.63;;;;;;;;;;5021757;28;20536;-86
2021/11/27 03:13:03;;;;;;;4.10;3.60;;;;;;;;;;5021258;28;20543;-87
2021/11/27 03:16:07;;;;;;;5.30;3.97;;;;;;;;;;5021319;28;20535;-86
2021/11/27 03:19:14;;;;;;;5.87;3.77;;;;;;;;;;5021925;28;20555;-86
2021/11/27 03:22:22;;;;;;;6.93;4.30;;;;;;;;;;5032585;28;20646;-86
2021/11/27 03:25:27;;;;;;;5.20;3.97;;;;;;;;;;5021155;28;20551;-86
2021/11/27 03:28:31;;;;;;;5.60;3.93;;;;;;;;;;5021181;28;20622;-86
2021/11/27 03:31:36;;;;;;;6.07;3.87;;;;;;;;;;5032723;28;20535;-86
2021/11/27 03:34:43;;;;;;;6.33;3.93;;;;;;;;;;5032258;28;20555;-86
2021/11/27 03:37:48;;;;;;;6.00;4.07;;;;;;;;;;5020928;28;20615;-86
2021/11/27 03:40:57;;;;;;;5.07;4.10;;;;;;;;;;5032068;28;20602;-86
2021/11/27 03:44:01;;;;;;;6.60;4.23;;;;;;;;;;5020383;28;20539;-87
2021/11/27 03:47:06;;;;;;;6.80;4.27;;;;;;;;;;5020616;28;20611;-86
2021/11/27 03:50:10;;;;;;;5.57;3.80;;;;;;;;;;5032882;28;20539;-86
2021/11/27 03:53:24;;;;;;;6.57;4.00;;;;;;;;;;5021009;28;20538;-86
2021/11/27 03:56:30;;;;;;;5.57;3.70;;;;;;;;;;5021000;28;20543;-86
2021/11/27 03:59:36;;;;;;;6.13;4.10;;;;;;;;;;5020911;28;20535;-86
2021/11/27 04:02:42;;;;;;;6.30;3.60;;;;;;;;;;5020661;28;20587;-86
2021/11/27 04:05:52;;;;;;;6.23;3.70;;;;;;;;;;5032112;28;20543;-86
2021/11/27 04:08:58;;;;;;;5.87;3.87;;;;;;;;;;5020021;28;20618;-86
2021/11/27 04:12:04;;;;;;;6.57;3.93;;;;;;;;;;5020313;28;21079;-86
2021/11/27 04:15:22;;;;;;;6.43;4.20;;;;;;;;;;5026366;28;20543;-86
2021/11/27 04:18:27;;;;;;;5.47;3.80;;;;;;;;;;5035421;28;20963;-86
2021/11/27 04:21:31;;;;;;;6.23;4.17;;;;;;;;;;5025345;28;20591;-86
2021/11/27 04:24:36;;;;;;;5.37;3.73;;;;;;;;;;5036509;28;21090;-86
2021/11/27 04:27:41;;;;;;;6.00;4.40;;;;;;;;;;5024268;28;20630;-86
2021/11/27 04:30:46;;;;;;;5.90;4.33;;;;;;;;;;5024774;28;20542;-86
2021/11/27 04:33:51;;;;;;;6.13;4.33;;;;;;;;;;5024314;28;20547;-86
2021/11/27 04:36:55;;;;;;;7.27;4.47;;;;;;;;;;5024661;28;20593;-86
2021/11/27 04:40:00;;;;;;;6.60;4.43;;;;;;;;;;5035825;28;20539;-87
2021/11/27 04:43:04;;;;;;;6.97;4.50;;;;;;;;;;5023736;28;20590;-88
2021/11/27 04:46:09;;;;;;;9.57;5.27;;;;;;;;;;5023467;28;20546;-87
2021/11/27 04:49:13;;;;;;;6.50;4.63;;;;;;;;;;5023188;28;20555;-87
2021/11/27 04:52:17;;;;;;;5.67;4.30;;;;;;;;;;5023378;28;20543;-87
2021/11/27 04:55:22;;;;;;;7.30;4.87;;;;;;;;;;5023147;28;20535;-87
2021/11/27 04:58:35;;;;;;;9.20;5.33;;;;;;;;;;5024199;28;20642;-87
2021/11/27 05:01:42;;;;;;;7.43;5.17;;;;;;;;;;5024266;28;20591;-87
2021/11/27 05:04:47;;;;;;;8.40;5.03;;;;;;;;;;5023415;28;20564;-88
2021/11/27 05:07:52;;;;;;;7.13;4.87;;;;;;;;;;5022876;28;20659;-87
2021/11/27 05:10:57;;;;;;;5.93;4.57;;;;;;;;;;5023312;28;20548;-87
2021/11/27 05:14:01;;;;;;;7.33;5.10;;;;;;;;;;5022456;28;20546;-87
2021/11/27 05:17:06;;;;;;;5.67;4.60;;;;;;;;;;5033951;28;20614;-87
2021/11/27 05:20:13;;;;;;;8.70;5.40;;;;;;;;;;5023309;28;20543;-87
2021/11/27 05:23:18;;;;;;;7.80;5.27;;;;;;;;;;5022785;28;20590;-87
2021/11/27 05:26:22;;;;;;;8.10;5.03;;;;;;;;;;5022914;28;20540;-86
2021/11/27 05:29:50;;;;;;;6.83;4.93;;;;;;;;;;5037174;28;20911;-87
2021/11/27 05:36:16;;;;;;;7.70;5.40;;;;;;;;;;5033749;28;20551;-87
2021/11/27 05:39:20;;;;;;;6.63;4.47;;;;;;;;;;5021864;28;20543;-87
2021/11/27 05:42:25;;;;;;;7.83;5.30;;;;;;;;;;5021868;28;20598;-87
2021/11/27 05:45:30;;;;;;;6.47;4.60;;;;;;;;;;5021812;28;20888;-88
2021/11/27 05:48:36;;;;;;;8.37;4.67;;;;;;;;;;5021759;28;20630;-87
2021/11/27 05:52:00;;;;;;;8.27;5.17;;;;;;;;;;5056570;28;20535;-87
2021/11/27 05:55:06;;;;;;;5.87;4.47;;;;;;;;;;5021428;28;20888;-88
2021/11/27 05:58:10;;;;;;;5.77;4.30;;;;;;;;;;5069309;23;20675;-83
2021/11/27 06:01:14;;;;;;;6.47;4.93;;;;;;;;;;4992564;28;20897;-84
2021/11/27 06:04:18;;;;;;;6.57;4.67;;;;;;;;;;4992397;28;20953;-84
2021/11/27 06:07:23;;;;;;;6.87;4.43;;;;;;;;;;5003569;28;20973;-84
2021/11/27 06:10:28;;;;;;;6.13;4.60;;;;;;;;;;4992375;28;20545;-84
2021/11/27 06:13:31;;;;;;;6.97;4.47;;;;;;;;;;5003241;28;20549;-84
2021/11/27 06:16:36;;;;;;;5.27;4.17;;;;;;;;;;5003604;28;20905;-85
2021/11/27 06:19:41;;;;;;;6.97;4.37;;;;;;;;;;5003251;28;20906;-85
2021/11/27 06:22:45;;;;;;;5.17;3.80;;;;;;;;;;4992453;28;20604;-85
2021/11/27 06:25:50;;;;;;;5.77;4.13;;;;;;;;;;5003593;28;20537;-86
2021/11/27 06:28:54;;;;;;;4.80;3.67;;;;;;;;;;4991955;28;20620;-86
2021/11/27 06:31:58;;;;;;;6.63;4.33;;;;;;;;;;5003038;28;20897;-86
2021/11/27 06:35:04;;;;;;;6.90;4.40;;;;;;;;;;4991531;28;20599;-85
2021/11/27 06:38:09;;;;;;;6.53;4.47;;;;;;;;;;4991565;28;20632;-85
2021/11/27 06:41:13;;;;;;;8.17;4.60;;;;;;;;;;5002978;28;20537;-85
2021/11/27 06:44:26;;;;;;;7.50;4.93;;;;;;;;;;4992939;28;20534;-85
2021/11/27 06:47:31;;;;;;;7.20;4.60;;;;;;;;;;4991518;28;20632;-86
2021/11/27 06:50:35;;;;;;;8.93;5.00;;;;;;;;;;5002656;28;20541;-86
2021/11/27 06:53:40;;;;;;;7.83;5.17;;;;;;;;;;4991302;28;20544;-86
2021/11/27 06:56:44;;;;;;;7.60;5.17;;;;;;;;;;4991536;28;20539;-86
2021/11/27 06:59:48;;;;;;;8.00;4.87;;;;;;;;;;4991396;28;20600;-86
2021/11/27 07:03:12;;;;;;;6.37;4.70;;;;;;;;;;4990811;28;20672;-86
2021/11/27 07:06:34;;;;;;;6.83;4.83;;;;;;;;;;5004969;28;20541;-86
2021/11/27 07:09:39;;;;;;;7.07;4.90;;;;;;;;;;5002531;28;20541;-86
2021/11/27 07:12:47;;;;;;;6.87;4.73;;;;;;;;;;4991488;28;20556;-86
2021/11/27 07:15:53;;;;;;;7.37;5.00;;;;;;;;;;4991425;28;20536;-88
2021/11/27 07:18:57;;;;;;;6.80;4.23;;;;;;;;;;4991074;28;20631;-88
2021/11/27 07:22:02;;;;;;;6.43;4.77;;;;;;;;;;4991155;28;20533;-88
2021/11/27 07:25:07;;;;;;;5.33;3.90;;;;;;;;;;4990985;28;20545;-88
2021/11/27 07:28:30;;;;;;;6.07;3.53;;;;;;;;;;4993379;28;20628;-86
2021/11/27 07:31:34;;;;;;;5.47;4.00;;;;;;;;;;4991032;28;20544;-86
2021/11/27 07:34:39;;;;;;;3.80;3.10;;;;;;;;;;5001913;28;20553;-85
2021/11/27 07:37:43;;;;;;;3.97;2.87;;;;;;;;;;4991019;28;20209;-84
2021/11/27 07:40:47;;;;;;;3.70;2.93;;;;;;;;;;4990824;28;20625;-84
2021/11/27 07:43:51;;;;;;;4.93;3.40;;;;;;;;;;4990379;28;20574;-84
2021/11/27 07:47:27;;;;;;;7.73;4.30;;;;;;;;;;5005604;28;20594;-84
2021/11/27 07:50:50;;;;;;;5.13;3.90;;;;;;;;;;5013377;28;20898;-85
2021/11/27 07:54:01;;;;;;;6.40;4.57;;;;;;;;;;4991554;28;20542;-85
2021/11/27 07:57:06;;;;;;;5.60;4.40;;;;;;;;;;4990424;28;20545;-85
2021/11/27 08:00:11;;;;;;;8.27;4.60;;;;;;;;;;4990738;28;20553;-85
2021/11/27 08:03:17;;;;;;;7.23;5.00;;;;;;;;;;5002174;28;20604;-86
2021/11/27 08:06:22;;;;;;;5.87;4.70;;;;;;;;;;5001430;28;20607;-86
2021/11/27 08:09:26;;;;;;;11.80;5.07;;;;;;;;;;5001612;28;20604;-85
2021/11/27 08:12:30;;;;;;;6.20;4.70;;;;;;;;;;4981863;28;20612;-84
2021/11/27 08:15:34;;;;;;;6.83;4.47;;;;;;;;;;4970751;28;20604;-85
2021/11/27 08:18:38;;;;;;;6.00;4.57;;;;;;;;;;4970794;28;20620;-85
2021/11/27 08:21:43;;;;;;;6.23;4.73;;;;;;;;;;4981478;28;20549;-84
2021/11/27 08:24:49;;;;;;;6.03;4.67;;;;;;;;;;4970543;28;20546;-84
2021/11/27 08:27:52;;;;;;;7.70;4.60;;;;;;;;;;4971347;28;20621;-84
2021/11/27 08:30:57;;;;;;;6.43;4.33;;;;;;;;;;4971011;28;20538;-85
2021/11/27 08:34:01;;;;;;;5.63;4.40;;;;;;;;;;4981982;28;20549;-85
2021/11/27 08:37:05;;;;;;;5.93;4.20;;;;;;;;;;4970968;28;20597;-84
2021/11/27 08:40:11;;;;;;;5.93;4.60;;;;;;;;;;4970665;28;20605;-84
2021/11/27 08:43:15;;;;;;;5.80;4.50;;;;;;;;;;4992954;28;20650;-84
2021/11/27 08:46:19;;;;;;;6.43;5.43;;;;;;;;;;4970869;28;20545;-85
2021/11/27 08:49:24;;;;;;;5.37;4.10;;;;;;;;;;4970499;28;20625;-85
2021/11/27 08:52:28;;;;;;;5.37;4.27;;;;;;;;;;4981816;28;20609;-85
2021/11/27 08:55:32;;;;;;;6.43;3.93;;;;;;;;;;4970692;28;20542;-85
2021/11/27 08:58:37;;;;;;;6.23;4.20;;;;;;;;;;4970147;28;21232;-85
2021/11/27 09:01:43;;;;;;;5.23;4.10;;;;;;;;;;4974122;28;21074;-85
2021/11/27 09:04:47;;;;;;;4.43;3.73;;;;;;;;;;4973886;28;20546;-85
2021/11/27 09:07:51;;;;;;;5.67;3.90;;;;;;;;;;4985074;28;20218;-84
2021/11/27 09:10:55;;;;;;;5.57;3.30;;;;;;;;;;4985420;28;21082;-84
2021/11/27 09:14:00;;;;;;;4.23;3.20;;;;;;;;;;4974081;28;20541;-84
2021/11/27 09:17:04;;;;;;;4.17;3.20;;;;;;;;;;4973866;28;20546;-84
2021/11/27 09:20:09;;;;;;;4.10;2.97;;;;;;;;;;4974048;28;20537;-85
2021/11/27 09:23:13;;;;;;;3.87;2.50;;;;;;;;;;4984780;28;20605;-86
2021/11/27 09:26:18;;;;;;;4.60;2.60;;;;;;;;;;4973719;28;20609;-84
2021/11/27 09:29:23;;;;;;;2.37;2.17;;;;;;;;;;4973515;28;20629;-84
2021/11/27 09:32:27;;;;;;;4.60;2.70;;;;;;;;;;4974219;28;20178;-85
2021/11/27 09:35:31;;;;;;;3.67;2.67;;;;;;;;;;4985038;28;20186;-84
2021/11/27 09:38:38;;;;;;;3.30;2.87;;;;;;;;;;4984670;28;20579;-85
2021/11/27 09:41:44;;;;;;;3.23;2.23;;;;;;;;;;4973548;28;20183;-86
2021/11/27 09:44:51;;;;;;;3.17;2.77;;;;;;;;;;4995637;28;20210;-86
2021/11/27 09:47:56;;;;;;;3.70;3.17;;;;;;;;;;4973324;28;20559;-85
2021/11/27 09:51:00;;;;;;;3.30;2.97;;;;;;;;;;4984382;28;20186;-86
2021/11/27 09:54:06;;;;;;;6.00;3.03;;;;;;;;;;4973490;28;20561;-86
2021/11/27 09:57:11;;;;;;;4.27;3.40;;;;;;;;;;4973050;28;20194;-84
2021/11/27 10:00:17;;;;;;;4.47;3.23;;;;;;;;;;4973341;28;20182;-85
2021/11/27 10:03:21;;;;;;;4.73;3.50;;;;;;;;;;4973233;28;20210;-84
2021/11/27 10:06:28;;;;;;;3.90;3.10;;;;;;;;;;4983786;28;20182;-85
2021/11/27 10:09:33;;;;;;;4.67;3.37;;;;;;;;;;4985897;28;20182;-85
2021/11/27 10:12:42;;;;;;;4.83;3.50;;;;;;;;;;4974229;28;20178;-86
2021/11/27 10:15:47;;;;;;;3.93;3.27;;;;;;;;;;4984314;28;20182;-85
2021/11/27 10:19:09;;;;;;;4.00;3.03;;;;;;;;;;4972924;28;20221;-84
2021/11/27 10:22:17;;;;;;;3.83;3.23;;;;;;;;;;4972800;28;20178;-85
2021/11/27 10:25:26;;;;;;;3.67;2.67;;;;;;;;;;4983834;28;20178;-84
2021/11/27 10:28:30;;;;;;;3.57;2.57;;;;;;;;;;4983324;28;20218;-84
2021/11/27 10:31:34;;;;;;;3.07;2.50;;;;;;;;;;4983581;28;20541;-84
2021/11/27 10:34:45;;;;;;;4.37;2.60;;;;;;;;;;4972179;28;20190;-84
2021/11/27 10:37:53;;;;;;;3.07;2.63;;;;;;;;;;4983453;28;20221;-84
2021/11/27 10:40:59;;;;;;;4.13;3.20;;;;;;;;;;4972466;28;20179;-85
2021/11/27 10:44:10;;;;;;;4.40;3.10;;;;;;;;;;4983731;28;20201;-85
2021/11/27 10:47:16;;;;;;;4.00;3.30;;;;;;;;;;4983087;28;20178;-85
2021/11/27 10:50:24;;;;;;;4.20;3.17;;;;;;;;;;4983198;28;20182;-85
2021/11/27 10:53:35;;;;;;;3.73;2.97;;;;;;;;;;4972434;28;20174;-85
2021/11/27 10:56:45;;;;;;;5.63;3.43;;;;;;;;;;4971814;28;20194;-85
2021/11/27 10:59:49;;;;;;;4.03;3.10;;;;;;;;;;4971839;28;20194;-86
2021/11/27 11:02:54;;;;;;;5.90;2.83;;;;;;;;;;4972395;28;20551;-85
2021/11/27 11:06:00;;;;;;;2.80;2.40;;;;;;;;;;4983026;28;20186;-86
2021/11/27 11:09:04;;;;;;;3.80;2.60;;;;;;;;;;4971766;28;20682;-85
2021/11/27 11:12:08;;;;;;;3.77;2.77;;;;;;;;;;4982538;28;20202;-86
2021/11/27 11:15:32;;;;;;;2.37;2.07;;;;;;;;;;4976143;28;20193;-86
2021/11/27 11:18:36;;;;;;;3.40;2.40;;;;;;;;;;4990957;28;20214;-86
2021/11/27 11:22:05;;;;;;;2.67;2.10;;;;;;;;;;4984821;28;20189;-86
2021/11/27 11:25:10;;;;;;;2.50;2.10;;;;;;;;;;4971851;28;20209;-86
2021/11/27 11:28:15;;;;;;;2.50;2.30;;;;;;;;;;4976365;28;20221;-86
2021/11/27 11:31:31;;;;;;;2.73;2.33;;;;;;;;;;4997597;28;20193;-86
2021/11/27 11:34:35;;;;;;;3.40;2.60;;;;;;;;;;4990387;28;20189;-85
2021/11/27 11:37:39;;;;;;;4.33;2.30;;;;;;;;;;5011567;28;20224;-86
2021/11/27 11:40:44;;;;;;;3.17;2.50;;;;;;;;;;4993491;28;20202;-87
2021/11/27 11:43:52;;;;;;;3.30;2.30;;;;;;;;;;4985129;28;20213;-87
2021/11/27 11:46:58;;;;;;;4.30;2.40;;;;;;;;;;4987983;28;20201;-87
2021/11/27 11:50:06;;;;;;;2.83;2.27;;;;;;;;;;5000947;28;20197;-87
2021/11/27 11:53:34;;;;;;;3.63;2.40;;;;;;;;;;4963042;28;20191;-87
2021/11/27 11:56:41;;;;;;;2.50;2.23;;;;;;;;;;4965797;28;20202;-87
2021/11/27 11:59:47;;;;;;;3.83;2.60;;;;;;;;;;5008737;23;20232;-87
2021/11/27 12:02:51;;;;;;;2.67;2.37;;;;;;;;;;4982474;28;20178;-87
2021/11/27 12:05:55;;;;;;;2.60;2.33;;;;;;;;;;4971816;28;20194;-86
2021/11/27 12:09:03;;;;;;;2.83;2.20;;;;;;;;;;4978700;28;20225;-87
2021/11/27 12:12:18;;;;;;;2.87;2.40;;;;;;;;;;4985561;28;20182;-88
2021/11/27 12:15:28;;;;;;;2.63;2.03;;;;;;;;;;4983281;28;20190;-88
2021/11/27 12:18:33;;;;;;;3.03;2.63;;;;;;;;;;4973310;28;20714;-87
2021/11/27 12:21:37;;;;;;;3.97;2.10;;;;;;;;;;4996984;28;20183;-87
2021/11/27 12:25:12;;;;;;;2.63;2.20;;;;;;;;;;4987364;28;20205;-87
2021/11/27 12:28:16;;;;;;;2.77;2.30;;;;;;;;;;4992425;28;20575;-87
2021/11/27 12:31:44;;;;;;;3.47;2.47;;;;;;;;;;4984855;28;20182;-88
2021/11/27 12:34:50;;;;;;;2.50;2.00;;;;;;;;;;5003047;28;20189;-88
2021/11/27 12:38:33;;;;;;;2.27;1.87;;;;;;;;;;5018753;28;20185;-87
2021/11/27 12:41:41;;;;;;;2.50;1.90;;;;;;;;;;5006184;28;20183;-89
2021/11/27 12:44:55;;;;;;;2.30;2.10;;;;;;;;;;4987997;28;20550;-87
2021/11/27 12:47:59;;;;;;;2.93;2.47;;;;;;;;;;4977109;28;20694;-87
2021/11/27 12:51:18;;;;;;;3.17;2.10;;;;;;;;;;4990472;28;20190;-88
2021/11/27 12:54:25;;;;;;;2.67;2.27;;;;;;;;;;4993368;28;20185;-88
2021/11/27 12:57:38;;;;;;;3.03;2.23;;;;;;;;;;5016167;28;20546;-87
2021/11/27 13:00:20;;;;;;;2.30;1.90;;;;;;;;;;5008871;23;20235;-73
2021/11/27 13:03:25;;;;;;;3.33;2.07;;;;;;;;;;5035560;28;20653;-73
2021/11/27 13:06:28;;;;;;;2.63;1.93;;;;;;;;;;5026385;28;20180;-73
2021/11/27 13:09:33;;;;;;;2.97;2.00;;;;;;;;;;5035272;28;20192;-72
2021/11/27 13:12:53;;;;;;;3.87;2.37;;;;;;;;;;5015330;28;20220;-73
2021/11/27 13:16:08;;;;;;;2.97;1.97;;;;;;;;;;5023413;28;20193;-72
2021/11/27 13:19:24;;;;;;;3.60;2.17;;;;;;;;;;5024262;28;20205;-72
2021/11/27 13:22:28;;;;;;;3.53;2.40;;;;;;;;;;5033359;28;20221;-71
2021/11/27 13:25:43;;;;;;;2.83;2.30;;;;;;;;;;5035306;28;20684;-71
2021/11/27 13:28:56;;;;;;;3.03;2.30;;;;;;;;;;5035631;28;20201;-71
2021/11/27 13:32:01;;;;;;;3.20;2.60;;;;;;;;;;5022988;28;20217;-71
2021/11/27 13:35:08;;;;;;;2.53;2.10;;;;;;;;;;5035237;28;20649;-71
2021/11/27 13:38:12;;;;;;;3.07;2.30;;;;;;;;;;5035073;28;20569;-72
2021/11/27 13:41:17;;;;;;;2.37;1.97;;;;;;;;;;5032597;28;20216;-71
2021/11/27 13:44:33;;;;;;;2.50;2.20;;;;;;;;;;5023315;28;20212;-71
2021/11/27 13:47:38;;;;;;;3.43;2.10;;;;;;;;;;5015723;28;20190;-71
2021/11/27 13:50:48;;;;;;;2.67;2.13;;;;;;;;;;5033868;28;20243;-71
2021/11/27 13:53:52;;;;;;;3.37;2.80;;;;;;;;;;5035157;28;20626;-71
2021/11/27 13:56:57;;;;;;;3.03;2.20;;;;;;;;;;5017206;28;20185;-76
2021/11/27 14:00:25;;;;;;;2.63;2.23;;;;;;;;;;5022499;28;20204;-76
2021/11/27 14:03:32;;;;;;;3.13;2.00;;;;;;;;;;5022998;28;20185;-76
2021/11/27 14:06:36;;;;;;;2.40;1.80;;;;;;;;;;5012488;28;20169;-76
2021/11/27 14:09:49;;;;;;;4.17;2.47;;;;;;;;;;5023016;28;20173;-76
2021/11/27 14:13:04;;;;;;;4.77;2.03;;;;;;;;;;5022761;28;20176;-76
2021/11/27 14:16:21;;;;;;;3.73;2.20;;;;;;;;;;5035076;28;20182;-75
2021/11/27 14:19:26;;;;;;;2.90;2.30;;;;;;;;;;5034957;28;20185;-75
2021/11/27 14:22:30;;;;;;;2.47;2.00;;;;;;;;;;5034911;28;20573;-75
2021/11/27 14:25:37;;;;;;;4.10;2.47;;;;;;;;;;5034550;28;20204;-76
2021/11/27 14:28:53;;;;;;;3.43;2.53;;;;;;;;;;5022946;28;20189;-76
2021/11/27 14:31:57;;;;;;;3.60;2.47;;;;;;;;;;5035132;28;20221;-76
2021/11/27 14:35:01;;;;;;;3.70;2.80;;;;;;;;;;5035086;28;20173;-75
2021/11/27 14:38:06;;;;;;;4.30;2.80;;;;;;;;;;5022531;28;20181;-76
2021/11/27 14:41:14;;;;;;;2.90;2.50;;;;;;;;;;5035568;28;20216;-75
2021/11/27 14:44:19;;;;;;;3.77;2.93;;;;;;;;;;5034854;28;20212;-74
2021/11/27 14:47:23;;;;;;;3.87;2.60;;;;;;;;;;5022872;28;20626;-75
2021/11/27 14:50:27;;;;;;;4.67;2.37;;;;;;;;;;5034683;28;20181;-75
2021/11/27 14:53:36;;;;;;;3.50;2.50;;;;;;;;;;5022463;28;20196;-75
2021/11/27 14:56:40;;;;;;;2.43;2.23;;;;;;;;;;5034147;28;20625;-74
2021/11/27 15:00:09;;;;;;;2.83;2.40;;;;;;;;;;5022572;28;20204;-75
2021/11/27 15:03:14;;;;;;;2.80;2.10;;;;;;;;;;5034510;28;20180;-75
2021/11/27 15:06:18;;;;;;;2.80;2.03;;;;;;;;;;5021541;28;20220;-76
2021/11/27 15:09:22;;;;;;;3.53;2.40;;;;;;;;;;5033639;28;20607;-75
2021/11/27 15:12:27;;;;;;;4.90;2.30;;;;;;;;;;5033901;28;20216;-76
2021/11/27 15:15:31;;;;;;;3.37;2.40;;;;;;;;;;5034069;28;21080;-75
2021/11/27 15:18:35;;;;;;;3.80;2.50;;;;;;;;;;5019943;28;20584;-75
2021/11/27 15:21:39;;;;;;;3.30;2.37;;;;;;;;;;5021840;28;20558;-75
2021/11/27 15:24:49;;;;;;;3.37;2.57;;;;;;;;;;5034822;28;20591;-75
2021/11/27 15:27:53;;;;;;;2.77;2.20;;;;;;;;;;5032965;28;21161;-76
2021/11/27 15:30:58;;;;;;;3.40;2.10;;;;;;;;;;5021189;28;20647;-77
2021/11/27 15:34:03;;;;;;;3.00;2.20;;;;;;;;;;5021339;28;20584;-77
2021/11/27 15:37:08;;;;;;;3.70;2.43;;;;;;;;;;5033733;28;20536;-76
2021/11/27 15:40:12;;;;;;;4.20;2.27;;;;;;;;;;5032223;28;20568;-77
2021/11/27 15:43:16;;;;;;;2.87;2.50;;;;;;;;;;5021204;28;21098;-77
2021/11/27 15:46:20;;;;;;;2.80;2.33;;;;;;;;;;5033224;28;20623;-76
2021/11/27 15:49:25;;;;;;;7.23;2.80;;;;;;;;;;5033151;28;20897;-77
2021/11/27 15:52:29;;;;;;;4.43;2.57;;;;;;;;;;5004670;28;21242;-76
2021/11/27 15:55:33;;;;;;;2.57;2.20;;;;;;;;;;5025704;28;20770;-76
2021/11/27 15:58:39;;;;;;;2.77;2.23;;;;;;;;;;5009116;28;20631;-76
2021/11/27 16:01:46;;;;;;;3.63;2.30;;;;;;;;;;5032354;28;21528;-75
2021/11/27 16:04:50;;;;;;;2.23;2.03;;;;;;;;;;5005246;28;20639;-74
2021/11/27 16:07:54;;;;;;;2.40;1.90;;;;;;;;;;5029202;28;20627;-73
2021/11/27 16:10:59;;;;;;;2.87;2.30;;;;;;;;;;5032927;28;20659;-74
2021/11/27 16:14:03;;;;;;;2.43;1.83;;;;;;;;;;5020935;28;20937;-73
2021/11/27 16:17:07;;;;;;;3.17;2.27;;;;;;;;;;5009395;28;20969;-74
2021/11/27 16:20:11;;;;;;;3.07;2.10;;;;;;;;;;5033042;28;20638;-74
2021/11/27 16:23:16;;;;;;;3.10;2.10;;;;;;;;;;5032900;28;20607;-73
2021/11/27 16:26:20;;;;;;;4.93;2.20;;;;;;;;;;5032402;28;20631;-74
2021/11/27 16:29:24;;;;;;;4.27;2.50;;;;;;;;;;5020745;28;20603;-75
2021/11/27 16:32:28;;;;;;;2.37;1.97;;;;;;;;;;5032775;28;20656;-73
2021/11/27 16:35:34;;;;;;;4.33;2.60;;;;;;;;;;5020876;28;20595;-74
2021/11/27 16:38:39;;;;;;;3.23;2.30;;;;;;;;;;5032654;28;20563;-73
2021/11/27 16:41:44;;;;;;;5.20;3.17;;;;;;;;;;5033121;28;20627;-74
2021/11/27 16:44:48;;;;;;;9.27;6.00;;;;;;;;;;5032225;28;20595;-73
2021/11/27 16:47:52;;;;;;;27.27;16.57;;;;;;;;;;5032603;28;21145;-73
2021/11/27 16:50:57;;;;;;;6.00;4.03;;;;;;;;;;5032023;28;20654;-73
2021/11/27 16:54:02;;;;;;;5.00;2.93;;;;;;;;;;5031927;28;21182;-73
2021/11/27 16:57:06;;;;;;;9.30;4.67;;;;;;;;;;5032699;28;20556;-73
2021/11/27 17:00:14;;;;;;;8.00;3.73;;;;;;;;;;5032241;28;20631;-73
2021/11/27 17:03:18;;;;;;;3.73;2.70;;;;;;;;;;5019973;28;21111;-73
2021/11/27 17:06:24;;;;;;;3.20;2.80;;;;;;;;;;5012546;28;20682;-74
2021/11/27 17:09:28;;;;;;;3.57;2.83;;;;;;;;;;5009095;28;20607;-71
2021/11/27 17:12:33;;;;;;;4.20;2.70;;;;;;;;;;5031888;28;20662;-71
2021/11/27 17:15:38;;;;;;;4.17;2.80;;;;;;;;;;5011997;28;20565;-72
2021/11/27 17:18:48;;;;;;;9.83;5.73;;;;;;;;;;5012351;28;20560;-71
2021/11/27 17:21:52;;;;;;;24.30;14.40;;;;;;;;;;4988068;28;20627;-71
2021/11/27 17:24:56;;;;;;;9.80;5.83;;;;;;;;;;5018024;28;21155;-72
2021/11/27 17:28:02;;;;;;;7.07;6.00;;;;;;;;;;5019391;28;20571;-73
2021/11/27 17:31:06;;;;;;;5.37;4.20;;;;;;;;;;5019365;28;21079;-72
2021/11/27 17:34:13;;;;;;;3.93;3.20;;;;;;;;;;5031474;28;21023;-71
2021/11/27 17:37:19;;;;;;;9.00;3.67;;;;;;;;;;5024869;28;20579;-72
2021/11/27 17:40:23;;;;;;;11.73;7.70;;;;;;;;;;5031339;28;20560;-72
2021/11/27 17:43:27;;;;;;;17.20;10.67;;;;;;;;;;5031249;28;20591;-72
2021/11/27 17:46:31;;;;;;;5.27;3.80;;;;;;;;;;5019254;28;20977;-72
2021/11/27 17:49:36;;;;;;;4.50;3.20;;;;;;;;;;5019437;28;21007;-71
2021/11/27 17:52:40;;;;;;;5.90;3.30;;;;;;;;;;5018414;28;20654;-73
2021/11/27 17:55:44;;;;;;;3.50;2.90;;;;;;;;;;5031422;28;20588;-73
2021/11/27 17:58:49;;;;;;;3.43;2.90;;;;;;;;;;5031077;28;20635;-73
2021/11/27 18:01:54;;;;;;;4.67;3.03;;;;;;;;;;5031083;28;20643;-73
2021/11/27 18:04:58;;;;;;;3.47;3.17;;;;;;;;;;5031029;28;20603;-73
2021/11/27 18:08:03;;;;;;;5.27;3.47;;;;;;;;;;5012275;28;20934;-73
2021/11/27 18:11:08;;;;;;;4.00;3.40;;;;;;;;;;5031103;28;20623;-73
2021/11/27 18:14:13;;;;;;;5.23;3.80;;;;;;;;;;5030799;28;20620;-73
2021/11/27 18:17:17;;;;;;;4.33;3.40;;;;;;;;;;5018785;28;20559;-73
2021/11/27 18:20:21;;;;;;;5.53;4.50;;;;;;;;;;5030802;28;20559;-73
2021/11/27 18:23:27;;;;;;;7.50;4.73;;;;;;;;;;5030527;28;20595;-74
2021/11/27 18:29:55;;;;;;;14.40;8.17;;;;;;;;;;5021577;28;20641;-73
2021/11/27 18:32:59;;;;;;;22.53;12.53;;;;;;;;;;5050194;28;20644;-72
2021/11/27 18:36:07;;;;;;;13.07;8.03;;;;;;;;;;5028268;28;20197;-72
2021/11/27 18:39:12;;;;;;;9.27;5.93;;;;;;;;;;5043997;28;20235;-72
2021/11/27 18:42:17;;;;;;;8.67;5.60;;;;;;;;;;5050529;28;20219;-72